Time;durP1;ratioP1;P1;durP2;ratioP2;P2;SDS_P1;SDS_P2;PMS_P1;PMS_P2;Temp;Humidity;BMP_temperature;BMP_pressure;BME280_temperature;BME280_humidity;BME280_pressure;Samples;Min_cycle;Max_cycle;Signal;HPM_P1;HPM_P2
2022/02/20 00:01:15;;;;;;;58.20;36.05;;;7.70;99.90;;;;;;4965573;28;20136;-72
2022/02/20 00:03:41;;;;;;;57.10;36.67;;;7.60;99.90;;;;;;4967211;28;20119;-72
2022/02/20 00:06:08;;;;;;;55.20;34.47;;;7.70;99.90;;;;;;4967360;28;20039;-72
2022/02/20 00:08:34;;;;;;;54.20;31.75;;;7.50;99.90;;;;;;4967155;28;20031;-72
2022/02/20 00:11:00;;;;;;;57.72;34.88;;;7.50;99.90;;;;;;4967186;28;20508;-72
2022/02/20 00:13:25;;;;;;;64.38;36.55;;;7.60;99.90;;;;;;4967483;28;20117;-72
2022/02/20 00:15:51;;;;;;;67.95;36.97;;;7.70;99.90;;;;;;4967954;28;20562;-72
2022/02/20 00:18:17;;;;;;;63.95;36.53;;;7.70;99.90;;;;;;4968052;28;20673;-72
2022/02/20 00:20:44;;;;;;;64.60;35.90;;;7.80;99.90;;;;;;4968020;28;20042;-72
2022/02/20 00:23:10;;;;;;;66.45;38.55;;;7.80;99.90;;;;;;4968080;28;20436;-72
2022/02/20 00:25:37;;;;;;;67.72;39.85;;;7.80;99.90;;;;;;4971424;28;20027;-72
2022/02/20 00:28:04;;;;;;;63.05;37.70;;;7.80;99.90;;;;;;4971194;28;20125;-72
2022/02/20 00:30:30;;;;;;;64.95;39.05;;;7.70;99.90;;;;;;4971297;28;20073;-72
2022/02/20 00:32:58;;;;;;;62.47;37.95;;;7.70;99.90;;;;;;4971898;28;20047;-72
2022/02/20 00:35:25;;;;;;;64.18;38.25;;;7.60;99.90;;;;;;4972042;28;20475;-72
2022/02/20 00:37:50;;;;;;;61.53;38.63;;;7.60;99.90;;;;;;4971358;28;20030;-72
2022/02/20 00:40:16;;;;;;;61.67;36.00;;;7.50;99.90;;;;;;4971405;28;20051;-72
2022/02/20 00:42:42;;;;;;;65.97;38.08;;;7.60;99.90;;;;;;4971198;28;20027;-72
2022/02/20 00:45:08;;;;;;;62.78;36.90;;;7.60;99.90;;;;;;4971247;28;20037;-72
2022/02/20 00:47:33;;;;;;;67.75;39.00;;;7.60;99.90;;;;;;4971080;28;20042;-72
2022/02/20 00:49:59;;;;;;;61.15;36.20;;;7.60;99.90;;;;;;4971245;28;20126;-72
2022/02/20 00:52:25;;;;;;;61.65;33.90;;;7.50;99.90;;;;;;4971102;28;20117;-72
2022/02/20 00:54:51;;;;;;;61.78;36.80;;;7.60;99.90;;;;;;4971069;28;20037;-72
2022/02/20 00:57:16;;;;;;;68.18;38.53;;;7.60;99.90;;;;;;4971156;28;20023;-72
2022/02/20 00:59:42;;;;;;;68.78;37.25;;;7.70;99.90;;;;;;4970995;28;20041;-72
2022/02/20 01:02:07;;;;;;;65.63;39.92;;;7.70;99.90;;;;;;4970830;28;20114;-72
2022/02/20 01:04:33;;;;;;;68.65;38.97;;;7.70;99.90;;;;;;4970681;28;20042;-72
2022/02/20 01:06:59;;;;;;;65.28;39.42;;;7.70;99.90;;;;;;4970943;28;20027;-72
2022/02/20 01:09:24;;;;;;;67.40;35.00;;;7.80;99.90;;;;;;4970945;28;20027;-72
2022/02/20 01:11:50;;;;;;;56.10;35.90;;;7.70;99.90;;;;;;4970800;28;20106;-72
2022/02/20 01:14:16;;;;;;;63.40;34.13;;;7.60;99.90;;;;;;4971236;28;20453;-72
2022/02/20 01:16:41;;;;;;;66.03;36.75;;;7.60;99.90;;;;;;4970939;28;20425;-72
2022/02/20 01:19:07;;;;;;;66.65;40.45;;;7.70;99.90;;;;;;4970933;28;20019;-72
2022/02/20 01:21:33;;;;;;;69.03;38.85;;;7.60;99.90;;;;;;4970724;28;20026;-72
2022/02/20 01:23:58;;;;;;;68.85;41.45;;;7.60;99.90;;;;;;4970787;28;20453;-72
2022/02/20 01:26:24;;;;;;;71.22;39.97;;;7.60;99.90;;;;;;4969944;28;20086;-72
2022/02/20 01:28:50;;;;;;;74.25;42.30;;;7.60;99.90;;;;;;4974864;28;20126;-72
2022/02/20 01:31:15;;;;;;;68.45;39.40;;;7.70;99.90;;;;;;4975316;28;20043;-72
2022/02/20 01:33:41;;;;;;;65.38;40.25;;;7.70;99.90;;;;;;4975079;28;20397;-72
2022/02/20 01:36:08;;;;;;;67.47;37.50;;;7.80;99.90;;;;;;4973900;28;20027;-72
2022/02/20 01:38:34;;;;;;;68.97;38.53;;;7.60;99.90;;;;;;4975086;28;20054;-72
2022/02/20 01:41:00;;;;;;;80.72;43.40;;;7.60;99.90;;;;;;4975021;28;20549;-72
2022/02/20 01:43:25;;;;;;;73.18;44.15;;;7.70;99.90;;;;;;4975074;28;20122;-72
2022/02/20 01:45:51;;;;;;;80.03;43.03;;;7.80;99.90;;;;;;4974960;28;20030;-72
2022/02/20 01:48:17;;;;;;;75.50;44.95;;;7.70;99.90;;;;;;4974838;28;20492;-72
2022/02/20 01:50:42;;;;;;;73.72;43.63;;;7.70;99.90;;;;;;4975212;28;20039;-72
2022/02/20 01:53:09;;;;;;;71.88;41.08;;;7.70;99.90;;;;;;4974862;28;20034;-72
2022/02/20 01:55:35;;;;;;;75.50;42.92;;;7.80;99.90;;;;;;4974725;28;20058;-72
2022/02/20 01:58:01;;;;;;;65.82;42.33;;;7.60;99.90;;;;;;4974565;28;20426;-72
2022/02/20 02:00:26;;;;;;;79.05;43.55;;;7.50;99.90;;;;;;4974583;28;20031;-72
2022/02/20 02:02:52;;;;;;;68.35;44.40;;;7.50;99.90;;;;;;4974628;28;20019;-72
2022/02/20 02:05:18;;;;;;;72.72;43.08;;;7.50;99.90;;;;;;4974727;28;20025;-72
2022/02/20 02:07:45;;;;;;;63.40;39.60;;;7.40;99.90;;;;;;4975022;28;20050;-72
2022/02/20 02:10:10;;;;;;;70.53;41.25;;;7.40;99.90;;;;;;4974656;28;20101;-72
2022/02/20 02:12:37;;;;;;;69.35;40.92;;;7.40;99.90;;;;;;4973798;28;20038;-72
2022/02/20 02:15:06;;;;;;;68.47;41.88;;;7.50;99.90;;;;;;4973610;28;20073;-72
2022/02/20 02:17:32;;;;;;;68.15;41.97;;;7.40;99.90;;;;;;4973790;28;20030;-72
2022/02/20 02:19:58;;;;;;;64.30;38.25;;;7.40;99.90;;;;;;4973655;28;20034;-72
2022/02/20 02:22:25;;;;;;;60.95;33.70;;;7.50;99.90;;;;;;4973586;28;20027;-72
2022/02/20 02:24:52;;;;;;;58.53;34.90;;;7.60;99.90;;;;;;4973311;28;20369;-72
2022/02/20 02:27:17;;;;;;;51.03;30.98;;;7.60;99.90;;;;;;4972994;28;20038;-72
2022/02/20 02:29:45;;;;;;;49.70;30.45;;;7.60;99.90;;;;;;4973423;28;20022;-72
2022/02/20 02:32:11;;;;;;;55.50;34.45;;;7.70;99.90;;;;;;4973096;28;20039;-72
2022/02/20 02:34:38;;;;;;;55.70;34.03;;;7.70;99.90;;;;;;4973067;28;20531;-72
2022/02/20 02:37:04;;;;;;;44.55;28.92;;;7.50;99.90;;;;;;4973412;28;20034;-72
2022/02/20 02:39:29;;;;;;;55.58;32.65;;;7.40;99.90;;;;;;4972988;28;20489;-72
2022/02/20 02:41:55;;;;;;;54.35;30.83;;;7.40;99.90;;;;;;4973160;28;20106;-72
2022/02/20 02:44:21;;;;;;;49.22;28.88;;;7.40;99.90;;;;;;4973108;28;20023;-72
2022/02/20 02:46:46;;;;;;;51.72;28.98;;;7.40;99.90;;;;;;4972844;28;20117;-72
2022/02/20 02:49:12;;;;;;;46.50;26.45;;;7.30;99.90;;;;;;4972935;28;20035;-72
2022/02/20 02:51:39;;;;;;;40.70;23.52;;;7.30;99.90;;;;;;4973064;28;20026;-72
2022/02/20 02:54:12;;;;;;;41.50;24.00;;;7.40;99.90;;;;;;4973152;28;20039;-72
2022/02/20 02:56:39;;;;;;;37.63;22.65;;;7.40;99.90;;;;;;4972876;28;20085;-72
2022/02/20 02:59:05;;;;;;;38.28;23.95;;;7.50;99.90;;;;;;4972661;28;20169;-72
2022/02/20 03:01:31;;;;;;;37.45;22.95;;;7.40;99.90;;;;;;4972820;28;20481;-72
2022/02/20 03:03:57;;;;;;;41.13;22.67;;;7.40;99.90;;;;;;4972681;28;20026;-72
2022/02/20 03:06:24;;;;;;;33.92;21.73;;;7.50;99.90;;;;;;4972815;28;20093;-72
2022/02/20 03:08:50;;;;;;;37.15;20.80;;;7.40;99.90;;;;;;4972398;28;20481;-72
2022/02/20 03:11:17;;;;;;;46.80;24.23;;;7.40;99.90;;;;;;4972448;28;20039;-72
2022/02/20 03:13:43;;;;;;;34.63;21.48;;;7.40;99.90;;;;;;4972332;28;20428;-73
2022/02/20 03:16:09;;;;;;;37.78;22.63;;;7.30;99.90;;;;;;4972289;28;20034;-72
2022/02/20 03:18:35;;;;;;;32.97;20.30;;;7.20;99.90;;;;;;4972401;28;20421;-72
2022/02/20 03:21:03;;;;;;;37.78;20.90;;;7.00;99.90;;;;;;4972365;28;20046;-72
2022/02/20 03:23:29;;;;;;;32.15;18.40;;;7.10;99.90;;;;;;4972569;28;20093;-72
2022/02/20 03:25:55;;;;;;;31.88;19.75;;;7.20;99.90;;;;;;4972571;28;20113;-72
2022/02/20 03:28:21;;;;;;;29.13;18.98;;;7.10;99.90;;;;;;4972264;28;20173;-72
2022/02/20 03:30:47;;;;;;;37.58;17.90;;;6.90;99.90;;;;;;4972443;28;20410;-72
2022/02/20 03:33:14;;;;;;;33.13;19.05;;;6.80;99.90;;;;;;4972312;28;20429;-72
2022/02/20 03:35:41;;;;;;;33.97;17.67;;;6.80;99.90;;;;;;4972373;28;20034;-72
2022/02/20 03:38:07;;;;;;;25.77;15.23;;;6.80;99.90;;;;;;4972131;28;20023;-72
2022/02/20 03:40:33;;;;;;;23.67;13.95;;;6.90;99.90;;;;;;4972084;28;20051;-72
2022/02/20 03:43:01;;;;;;;26.60;13.43;;;7.00;99.70;;;;;;4972078;28;20414;-72
2022/02/20 03:45:28;;;;;;;24.73;12.73;;;7.00;99.80;;;;;;4972307;28;20120;-72
2022/02/20 03:47:54;;;;;;;19.02;11.40;;;6.70;99.90;;;;;;4972324;28;20031;-72
2022/02/20 03:50:20;;;;;;;19.00;11.20;;;6.50;99.70;;;;;;4972278;28;20038;-72
2022/02/20 03:52:46;;;;;;;16.83;9.98;;;6.80;99.10;;;;;;4971930;28;20042;-72
2022/02/20 03:55:11;;;;;;;21.95;11.32;;;6.80;98.70;;;;;;4971867;28;20034;-72
2022/02/20 03:57:37;;;;;;;15.00;8.52;;;6.70;99.00;;;;;;4971928;28;20035;-72
2022/02/20 04:00:10;;;;;;;16.60;8.73;;;6.70;98.40;;;;;;4974844;28;20027;-72
2022/02/20 04:02:37;;;;;;;17.80;10.30;;;6.70;98.00;;;;;;4973751;28;20122;-72
2022/02/20 04:05:04;;;;;;;16.50;9.75;;;6.60;97.90;;;;;;4967414;28;20030;-72
2022/02/20 04:07:30;;;;;;;16.60;10.18;;;6.70;98.00;;;;;;4968707;28;20646;-72
2022/02/20 04:09:55;;;;;;;17.40;9.95;;;6.50;98.10;;;;;;4969043;28;20037;-72
2022/02/20 04:12:21;;;;;;;16.88;9.38;;;6.50;98.10;;;;;;4968369;28;20516;-72
2022/02/20 04:14:47;;;;;;;14.43;8.38;;;6.30;98.40;;;;;;4968582;28;20382;-72
2022/02/20 04:17:12;;;;;;;16.45;9.45;;;6.40;98.30;;;;;;4968920;28;20153;-72
2022/02/20 04:19:38;;;;;;;20.10;10.88;;;6.20;98.50;;;;;;4968566;28;20607;-72
2022/02/20 04:22:04;;;;;;;19.98;10.57;;;6.00;99.10;;;;;;4969381;28;20124;-72
2022/02/20 04:24:29;;;;;;;19.88;10.90;;;6.00;99.30;;;;;;4971682;28;20114;-72
2022/02/20 04:26:55;;;;;;;21.05;10.35;;;5.80;99.60;;;;;;4971508;28;20030;-72
2022/02/20 04:29:21;;;;;;;18.88;10.65;;;5.90;99.30;;;;;;4971385;28;20103;-72
2022/02/20 04:31:47;;;;;;;17.38;9.13;;;5.90;99.30;;;;;;4971328;28;20042;-72
2022/02/20 04:34:12;;;;;;;16.65;8.75;;;5.80;99.40;;;;;;4971234;28;20038;-72
2022/02/20 04:36:38;;;;;;;17.95;9.75;;;5.80;99.40;;;;;;4971061;28;20487;-72
2022/02/20 04:39:09;;;;;;;15.73;9.85;;;5.90;99.20;;;;;;4971203;28;20062;-72
2022/02/20 04:41:35;;;;;;;16.70;10.10;;;6.00;99.20;;;;;;4971399;28;20410;-72
2022/02/20 04:44:00;;;;;;;16.65;9.98;;;6.00;99.20;;;;;;4970749;28;20038;-72
2022/02/20 04:46:26;;;;;;;14.02;8.07;;;5.70;99.90;;;;;;4970821;28;20042;-72
2022/02/20 04:48:52;;;;;;;17.42;9.27;;;5.60;99.90;;;;;;4970853;28;20030;-72
2022/02/20 04:51:18;;;;;;;17.15;9.70;;;5.60;99.80;;;;;;4970411;28;20477;-72
2022/02/20 04:53:43;;;;;;;16.40;9.93;;;5.70;99.90;;;;;;4971073;28;20186;-72
2022/02/20 04:56:09;;;;;;;17.08;8.90;;;5.80;99.90;;;;;;4970751;28;20381;-72
2022/02/20 04:58:35;;;;;;;17.08;9.88;;;5.70;99.90;;;;;;4968677;28;20367;-72
2022/02/20 05:01:00;;;;;;;16.33;9.68;;;5.70;99.60;;;;;;4967883;28;20115;-71
2022/02/20 05:03:26;;;;;;;22.75;10.15;;;5.70;99.60;;;;;;4968118;28;20030;-72
2022/02/20 05:05:53;;;;;;;16.73;9.60;;;6.00;99.20;;;;;;4967967;28;20018;-72
2022/02/20 05:08:18;;;;;;;19.23;10.10;;;6.10;98.90;;;;;;4967485;28;20061;-72
2022/02/20 05:10:44;;;;;;;17.02;9.30;;;5.90;99.20;;;;;;4967425;28;20115;-72
2022/02/20 05:13:10;;;;;;;18.40;10.10;;;6.00;99.00;;;;;;4967694;28;20078;-72
2022/02/20 05:15:35;;;;;;;20.38;9.68;;;6.20;98.70;;;;;;4967760;28;20144;-72
2022/02/20 05:18:01;;;;;;;17.20;9.60;;;6.20;98.50;;;;;;4967720;28;20023;-72
2022/02/20 05:20:27;;;;;;;20.80;9.77;;;6.10;98.50;;;;;;4967189;28;20480;-72
2022/02/20 05:22:52;;;;;;;16.33;8.52;;;6.00;98.70;;;;;;4967625;28;20451;-72
2022/02/20 05:25:18;;;;;;;15.20;9.20;;;5.80;99.10;;;;;;4967628;28;20109;-73
2022/02/20 05:27:44;;;;;;;17.90;10.70;;;5.80;99.30;;;;;;4967525;28;20481;-72
2022/02/20 05:30:11;;;;;;;17.35;8.80;;;5.60;99.80;;;;;;4967148;28;20473;-72
2022/02/20 05:32:37;;;;;;;14.57;8.70;;;5.30;99.90;;;;;;4967053;28;20031;-72
2022/02/20 05:35:03;;;;;;;16.40;9.30;;;5.30;99.90;;;;;;4966969;28;20050;-72
2022/02/20 05:37:29;;;;;;;15.48;9.27;;;5.10;99.90;;;;;;4967282;28;20058;-72
2022/02/20 05:39:55;;;;;;;16.60;9.77;;;5.20;99.90;;;;;;4981665;28;20709;-72
2022/02/20 05:42:21;;;;;;;17.15;8.82;;;5.50;99.80;;;;;;4967015;28;20086;-71
2022/02/20 05:44:46;;;;;;;16.70;9.32;;;5.60;99.70;;;;;;4967045;28;20512;-72
2022/02/20 05:47:14;;;;;;;15.05;8.40;;;5.70;99.20;;;;;;4966619;28;20065;-72
2022/02/20 05:49:40;;;;;;;12.90;7.97;;;5.50;99.00;;;;;;4966771;28;20035;-72
2022/02/20 05:52:06;;;;;;;13.52;7.40;;;5.60;98.70;;;;;;4966578;28;20058;-73
2022/02/20 05:54:32;;;;;;;12.90;7.05;;;5.60;98.50;;;;;;4966584;28;20042;-72
2022/02/20 05:56:57;;;;;;;11.77;6.78;;;5.80;97.80;;;;;;4966420;28;20432;-72
2022/02/20 05:59:23;;;;;;;11.43;6.20;;;5.80;97.80;;;;;;4967169;28;20038;-72
2022/02/20 06:01:48;;;;;;;12.55;6.55;;;5.50;98.20;;;;;;4966731;28;20027;-72
2022/02/20 06:04:14;;;;;;;12.05;5.78;;;5.50;98.20;;;;;;4966454;28;20035;-72
2022/02/20 06:06:40;;;;;;;11.63;6.50;;;5.60;97.70;;;;;;4966806;28;20034;-72
2022/02/20 06:09:05;;;;;;;11.10;5.80;;;5.70;97.40;;;;;;4966692;28;20055;-72
2022/02/20 06:11:31;;;;;;;10.80;6.13;;;5.70;97.40;;;;;;4966531;28;20082;-72
2022/02/20 06:13:56;;;;;;;12.98;6.72;;;5.70;97.80;;;;;;4966169;28;20043;-73
2022/02/20 06:16:22;;;;;;;11.80;6.13;;;5.40;98.00;;;;;;4966599;28;20031;-72
2022/02/20 06:18:48;;;;;;;12.93;7.47;;;5.30;98.30;;;;;;4966456;28;20512;-72
2022/02/20 06:21:14;;;;;;;11.43;6.43;;;5.20;98.50;;;;;;4966367;28;20031;-72
2022/02/20 06:23:40;;;;;;;10.25;5.60;;;5.10;99.10;;;;;;4965858;28;20109;-72
2022/02/20 06:26:06;;;;;;;11.88;6.55;;;5.10;99.00;;;;;;4965942;28;20039;-72
2022/02/20 06:28:32;;;;;;;11.40;6.10;;;5.00;98.90;;;;;;4966126;28;20429;-72
2022/02/20 06:30:58;;;;;;;15.55;7.05;;;4.80;99.10;;;;;;4966193;28;20042;-72
2022/02/20 06:33:24;;;;;;;12.07;6.05;;;4.80;99.60;;;;;;4966383;28;20085;-72
2022/02/20 06:35:49;;;;;;;11.30;5.45;;;4.80;99.20;;;;;;4966285;28;20110;-72
2022/02/20 06:38:15;;;;;;;10.82;5.75;;;4.90;99.10;;;;;;4965958;28;20038;-72
2022/02/20 06:40:41;;;;;;;11.43;6.10;;;5.00;99.20;;;;;;4966158;28;20066;-72
2022/02/20 06:43:06;;;;;;;9.95;5.88;;;4.90;99.20;;;;;;4966064;28;20027;-72
2022/02/20 06:45:32;;;;;;;12.52;5.95;;;4.90;99.60;;;;;;4966163;28;20037;-72
2022/02/20 06:47:58;;;;;;;9.07;5.35;;;4.90;99.60;;;;;;4966252;28;20031;-72
2022/02/20 06:50:23;;;;;;;12.43;5.65;;;5.20;98.60;;;;;;4966281;28;20065;-72
2022/02/20 06:52:49;;;;;;;12.60;6.68;;;5.50;98.00;;;;;;4966296;28;20113;-72
2022/02/20 06:55:15;;;;;;;10.88;5.60;;;5.50;97.90;;;;;;4966157;28;20533;-72
2022/02/20 06:57:41;;;;;;;10.35;6.00;;;5.50;97.70;;;;;;4966034;28;20085;-72
2022/02/20 07:00:12;;;;;;;11.65;6.05;;;5.50;98.10;;;;;;4965904;28;20089;-72
2022/02/20 07:02:39;;;;;;;12.57;6.70;;;5.50;97.60;;;;;;4965352;28;20054;-72
2022/02/20 07:05:06;;;;;;;12.40;5.80;;;5.60;97.30;;;;;;4965749;28;20065;-72
2022/02/20 07:07:32;;;;;;;10.55;6.40;;;5.60;97.50;;;;;;4965820;28;20046;-72
2022/02/20 07:09:58;;;;;;;9.75;5.45;;;5.50;98.00;;;;;;4965721;28;20062;-72
2022/02/20 07:12:24;;;;;;;10.00;5.50;;;5.40;97.80;;;;;;4965790;28;20093;-72
2022/02/20 07:14:49;;;;;;;11.65;5.47;;;5.50;97.80;;;;;;4965695;28;20043;-72
2022/02/20 07:17:15;;;;;;;10.25;4.88;;;5.40;98.20;;;;;;4965429;28;20026;-72
2022/02/20 07:19:41;;;;;;;11.07;6.30;;;5.10;98.50;;;;;;4965407;28;20113;-72
2022/02/20 07:22:06;;;;;;;10.60;5.90;;;5.10;98.60;;;;;;4965242;28;20035;-72
2022/02/20 07:24:32;;;;;;;11.27;5.95;;;5.20;98.80;;;;;;4965518;28;20031;-72
2022/02/20 07:26:58;;;;;;;11.00;5.60;;;5.10;98.50;;;;;;4965153;28;20027;-72
2022/02/20 07:29:23;;;;;;;12.95;5.65;;;5.10;98.30;;;;;;4964985;28;20026;-72
2022/02/20 07:31:49;;;;;;;12.15;6.93;;;5.40;97.80;;;;;;4965395;28;20050;-72
2022/02/20 07:34:15;;;;;;;11.73;6.40;;;5.40;98.40;;;;;;4965311;28;20524;-72
2022/02/20 07:36:41;;;;;;;9.50;5.78;;;5.30;98.00;;;;;;4965181;28;20427;-72
2022/02/20 07:39:11;;;;;;;11.30;5.85;;;5.40;98.00;;;;;;4964741;28;20062;-72
2022/02/20 07:41:37;;;;;;;9.30;5.07;;;5.20;98.60;;;;;;4965242;28;20609;-72
2022/02/20 07:44:04;;;;;;;9.63;5.50;;;5.00;99.10;;;;;;4965360;28;20045;-72
2022/02/20 07:46:31;;;;;;;11.18;6.25;;;5.10;98.90;;;;;;4965181;28;20117;-72
2022/02/20 07:48:59;;;;;;;11.48;6.57;;;5.10;98.80;;;;;;4964924;28;20338;-72
2022/02/20 07:51:25;;;;;;;11.27;6.40;;;5.20;98.50;;;;;;4965078;28;20585;-72
2022/02/20 07:53:51;;;;;;;10.40;5.90;;;5.40;98.10;;;;;;4965328;28;20034;-72
2022/02/20 07:56:17;;;;;;;8.52;4.97;;;5.60;97.50;;;;;;4965030;28;20031;-72
2022/02/20 07:58:46;;;;;;;10.90;4.85;;;5.60;96.60;;;;;;4965074;28;20037;-72
2022/02/20 08:01:12;;;;;;;10.02;4.13;;;5.70;96.50;;;;;;4965143;28;20034;-72
2022/02/20 08:03:38;;;;;;;7.85;3.78;;;5.60;96.50;;;;;;4964931;28;20034;-72
2022/02/20 08:06:05;;;;;;;7.50;3.88;;;5.70;96.10;;;;;;4964945;28;20034;-72
2022/02/20 08:08:32;;;;;;;11.38;4.75;;;5.70;96.00;;;;;;4964617;28;20035;-72
2022/02/20 08:10:58;;;;;;;7.72;4.50;;;5.70;96.30;;;;;;4964620;28;20042;-72
2022/02/20 08:13:24;;;;;;;8.55;4.60;;;5.70;96.10;;;;;;4964622;28;20670;-72
2022/02/20 08:15:50;;;;;;;8.65;4.40;;;5.60;96.30;;;;;;4964980;28;20031;-72
2022/02/20 08:18:16;;;;;;;8.13;4.30;;;5.60;96.40;;;;;;4964618;28;20101;-72
2022/02/20 08:20:44;;;;;;;6.78;4.10;;;5.50;96.50;;;;;;4964634;28;20619;-72
2022/02/20 08:23:10;;;;;;;10.98;4.38;;;5.40;97.10;;;;;;4964059;28;20054;-72
2022/02/20 08:25:37;;;;;;;7.95;4.15;;;5.50;97.10;;;;;;4964425;28;20512;-72
2022/02/20 08:28:03;;;;;;;7.28;3.90;;;5.40;97.70;;;;;;4964881;28;20066;-72
2022/02/20 08:30:29;;;;;;;9.13;4.88;;;5.30;98.10;;;;;;4964816;28;20507;-72
2022/02/20 08:32:54;;;;;;;11.15;5.18;;;5.30;98.20;;;;;;4964527;28;20467;-72
2022/02/20 08:35:20;;;;;;;9.23;4.30;;;5.40;97.70;;;;;;4964834;28;20551;-72
2022/02/20 08:37:46;;;;;;;6.95;4.10;;;5.40;97.90;;;;;;4964979;28;20039;-72
2022/02/20 08:40:17;;;;;;;9.55;4.90;;;5.40;97.50;;;;;;4964330;28;20050;-72
2022/02/20 08:42:44;;;;;;;8.82;4.60;;;5.60;97.40;;;;;;4964584;28;20023;-72
2022/02/20 08:45:10;;;;;;;8.60;4.32;;;5.70;97.10;;;;;;4966590;28;20436;-72
2022/02/20 08:47:36;;;;;;;8.65;4.60;;;5.80;96.50;;;;;;4970899;28;20034;-72
2022/02/20 08:50:03;;;;;;;8.90;4.70;;;5.90;96.60;;;;;;4970888;28;20035;-72
2022/02/20 08:52:29;;;;;;;10.45;5.35;;;6.10;96.30;;;;;;4970874;28;20512;-72
2022/02/20 08:54:54;;;;;;;9.27;4.85;;;6.20;95.90;;;;;;4970934;28;20066;-72
2022/02/20 08:57:20;;;;;;;8.07;4.60;;;6.20;96.20;;;;;;4970887;28;20038;-72
2022/02/20 08:59:46;;;;;;;8.35;4.40;;;6.20;96.10;;;;;;4969532;28;20061;-72
2022/02/20 09:02:12;;;;;;;15.52;8.82;;;6.30;94.90;;;;;;4971229;28;20111;-72
2022/02/20 09:04:39;;;;;;;11.55;6.32;;;6.40;95.10;;;;;;4971114;28;20054;-72
2022/02/20 09:07:06;;;;;;;8.10;4.47;;;6.40;94.90;;;;;;4971025;28;20096;-72
2022/02/20 09:09:31;;;;;;;8.90;4.65;;;6.40;94.60;;;;;;4970986;28;20036;-72
2022/02/20 09:11:57;;;;;;;8.55;4.25;;;6.50;94.90;;;;;;4970561;28;20078;-72
2022/02/20 09:14:23;;;;;;;7.80;3.70;;;6.50;94.80;;;;;;4970645;28;20034;-72
2022/02/20 09:16:48;;;;;;;11.57;4.07;;;6.50;95.50;;;;;;4969791;28;20093;-72
2022/02/20 09:19:14;;;;;;;7.78;3.92;;;6.50;94.90;;;;;;4970299;28;20026;-72
2022/02/20 09:21:40;;;;;;;9.70;4.43;;;6.60;94.80;;;;;;4970300;28;20038;-72
2022/02/20 09:24:06;;;;;;;10.75;4.35;;;6.50;94.40;;;;;;4969927;28;20472;-72
2022/02/20 09:26:32;;;;;;;7.35;3.80;;;6.50;94.50;;;;;;4961131;28;20066;-72
2022/02/20 09:28:57;;;;;;;8.45;3.75;;;6.60;94.50;;;;;;4961815;28;20058;-72
2022/02/20 09:31:23;;;;;;;7.78;4.13;;;6.60;94.30;;;;;;4970002;28;20035;-72
2022/02/20 09:33:49;;;;;;;7.22;3.75;;;6.70;94.50;;;;;;4970447;28;20394;-73
2022/02/20 09:36:14;;;;;;;8.90;3.55;;;6.80;93.90;;;;;;4985034;28;20548;-72
2022/02/20 09:38:41;;;;;;;8.85;3.88;;;6.80;93.80;;;;;;4970307;28;20022;-72
2022/02/20 09:41:08;;;;;;;6.85;3.22;;;6.90;93.90;;;;;;4970333;28;20914;-72
2022/02/20 09:43:35;;;;;;;6.30;3.22;;;7.00;93.10;;;;;;4961759;28;20180;-72
2022/02/20 09:46:01;;;;;;;10.73;4.10;;;7.00;94.00;;;;;;4969729;28;20031;-72
2022/02/20 09:48:29;;;;;;;9.32;3.60;;;7.00;94.20;;;;;;4965746;28;20493;-72
2022/02/20 09:50:55;;;;;;;11.05;4.47;;;7.10;94.30;;;;;;4969388;28;20038;-72
2022/02/20 09:53:21;;;;;;;7.22;4.32;;;7.30;94.00;;;;;;4961290;28;20035;-72
2022/02/20 09:55:49;;;;;;;10.05;4.53;;;7.40;94.30;;;;;;4969830;28;20061;-72
2022/02/20 09:58:16;;;;;;;9.20;4.93;;;7.40;93.90;;;;;;4968156;28;20042;-72
2022/02/20 10:00:51;;;;;;;9.27;4.28;;;7.70;93.90;;;;;;4964854;28;20026;-72
2022/02/20 10:03:27;;;;;;;7.15;3.65;;;7.60;93.90;;;;;;4966471;28;20027;-72
2022/02/20 10:05:53;;;;;;;9.23;4.32;;;8.00;93.90;;;;;;4950495;28;20035;-72
2022/02/20 10:08:19;;;;;;;7.93;3.95;;;7.80;93.90;;;;;;4950221;28;20086;-72
2022/02/20 10:10:45;;;;;;;9.50;4.53;;;7.80;93.50;;;;;;4950705;28;20027;-72
2022/02/20 10:13:10;;;;;;;8.63;3.78;;;7.80;93.70;;;;;;4950204;28;20496;-72
2022/02/20 10:15:40;;;;;;;9.30;4.05;;;7.70;92.70;;;;;;4950443;28;20073;-72
2022/02/20 10:18:11;;;;;;;8.68;3.90;;;7.70;93.40;;;;;;4950086;29;20586;-72
2022/02/20 10:20:37;;;;;;;11.63;4.07;;;7.70;93.40;;;;;;4950695;28;20126;-72
2022/02/20 10:23:07;;;;;;;6.55;3.55;;;7.70;93.30;;;;;;4950515;28;20103;-72
2022/02/20 10:25:32;;;;;;;9.15;4.45;;;7.80;93.70;;;;;;4964680;28;20051;-72
2022/02/20 10:27:58;;;;;;;6.60;3.78;;;7.70;93.60;;;;;;4950010;29;20089;-72
2022/02/20 10:30:29;;;;;;;9.10;4.03;;;7.60;93.70;;;;;;4950267;29;20739;-72
2022/02/20 10:33:24;;;;;;;7.95;3.58;;;7.60;93.20;;;;;;4950023;28;20043;-72
2022/02/20 10:35:52;;;;;;;9.27;3.75;;;7.80;93.00;;;;;;4941401;28;20055;-72
2022/02/20 10:38:24;;;;;;;8.85;4.63;;;7.80;93.60;;;;;;4949797;28;20035;-72
2022/02/20 10:40:54;;;;;;;7.50;4.03;;;7.80;93.70;;;;;;4949622;28;20050;-72
2022/02/20 10:43:27;;;;;;;7.70;4.22;;;8.00;93.30;;;;;;4949564;29;20035;-72
2022/02/20 10:46:07;;;;;;;8.23;4.40;;;8.20;92.80;;;;;;4949300;28;20441;-72
2022/02/20 10:48:41;;;;;;;7.85;4.30;;;8.30;92.80;;;;;;4949431;29;20027;-72
2022/02/20 10:51:08;;;;;;;8.73;3.97;;;8.30;92.20;;;;;;4949549;28;20438;-72
2022/02/20 10:53:34;;;;;;;8.80;3.70;;;8.30;91.90;;;;;;4949484;29;20118;-72
2022/02/20 10:56:00;;;;;;;8.85;3.80;;;8.50;92.20;;;;;;4949745;28;20110;-72
2022/02/20 10:58:31;;;;;;;6.75;3.72;;;8.50;91.70;;;;;;4949399;28;20027;-72
2022/02/20 11:01:01;;;;;;;6.65;3.72;;;8.60;91.40;;;;;;4949946;29;20038;-72
2022/02/20 11:03:29;;;;;;;6.55;3.10;;;8.70;92.10;;;;;;4949430;28;20030;-72
2022/02/20 11:05:57;;;;;;;5.82;2.83;;;8.90;91.70;;;;;;4949609;28;20342;-72
2022/02/20 11:08:26;;;;;;;9.23;3.55;;;9.00;90.90;;;;;;4949058;28;20545;-72
2022/02/20 11:10:53;;;;;;;8.57;4.10;;;9.00;90.30;;;;;;4949401;28;20397;-72
2022/02/20 11:13:20;;;;;;;4.82;2.83;;;9.10;90.40;;;;;;4949138;28;20039;-72
2022/02/20 11:15:48;;;;;;;6.68;3.72;;;9.10;90.20;;;;;;4949056;28;20102;-72
2022/02/20 11:18:17;;;;;;;5.18;2.97;;;9.30;90.70;;;;;;4948871;29;20034;-72
2022/02/20 11:20:46;;;;;;;7.38;3.15;;;9.10;90.30;;;;;;4948883;28;20027;-72
2022/02/20 11:23:14;;;;;;;5.10;3.00;;;9.00;90.60;;;;;;4948922;29;20090;-72
2022/02/20 11:25:44;;;;;;;5.25;2.83;;;9.20;90.30;;;;;;4949023;28;20074;-72
2022/02/20 11:28:09;;;;;;;5.55;3.28;;;9.40;90.40;;;;;;4948641;29;20050;-72
2022/02/20 11:30:36;;;;;;;6.22;3.30;;;9.50;89.70;;;;;;4948450;29;20055;-72
2022/02/20 11:33:11;;;;;;;7.57;3.13;;;9.70;90.40;;;;;;4948140;28;20035;-72
2022/02/20 11:35:43;;;;;;;5.78;2.80;;;9.80;90.20;;;;;;4948714;29;20058;-72
2022/02/20 11:38:18;;;;;;;8.88;4.28;;;10.00;90.10;;;;;;4948696;28;20043;-72
2022/02/20 11:40:54;;;;;;;10.75;4.35;;;10.10;91.10;;;;;;4948804;29;20054;-72
2022/02/20 11:43:36;;;;;;;7.35;3.92;;;10.20;91.20;;;;;;4948690;29;20023;-72
2022/02/20 11:46:07;;;;;;;9.02;4.50;;;10.40;90.00;;;;;;4948607;28;20548;-72
2022/02/20 11:48:33;;;;;;;8.85;4.18;;;10.50;91.00;;;;;;4948151;28;20035;-72
2022/02/20 11:51:14;;;;;;;11.43;4.28;;;10.60;90.40;;;;;;4962901;28;20586;-72
2022/02/20 11:53:40;;;;;;;8.07;3.88;;;10.80;90.10;;;;;;4948373;29;20089;-72
2022/02/20 11:56:06;;;;;;;8.77;4.40;;;10.90;89.20;;;;;;4948444;28;20039;-72
2022/02/20 11:58:32;;;;;;;7.50;3.85;;;10.80;88.90;;;;;;4948197;29;20027;-72
2022/02/20 12:01:04;;;;;;;7.65;3.60;;;10.60;89.10;;;;;;4948333;29;20114;-72
2022/02/20 12:03:46;;;;;;;8.57;4.03;;;10.60;88.40;;;;;;4948490;28;20082;-72
2022/02/20 12:06:17;;;;;;;7.85;3.72;;;10.60;87.80;;;;;;4948292;28;20148;-72
2022/02/20 12:08:50;;;;;;;6.28;3.78;;;10.90;89.00;;;;;;4947998;28;20037;-72
2022/02/20 12:11:24;;;;;;;10.20;3.75;;;11.10;89.30;;;;;;4948099;28;20031;-72
2022/02/20 12:13:55;;;;;;;7.10;4.90;;;11.30;88.80;;;;;;4948467;28;20214;-72
2022/02/20 12:16:30;;;;;;;6.95;4.30;;;11.40;87.40;;;;;;4948565;29;20139;-72
2022/02/20 12:19:04;;;;;;;;;;;11.50;87.30;;;;;;4949133;28;20078;-72
2022/02/20 12:21:31;;;;;;;9.75;4.50;;;11.50;86.10;;;;;;4951411;28;19914;-72
2022/02/20 12:23:58;;;;;;;7.40;3.88;;;11.70;85.60;;;;;;4962648;28;20043;-72
2022/02/20 12:27:08;;;;;;;15.02;3.85;;;11.50;84.70;;;;;;4967519;28;20035;-72
2022/02/20 12:29:39;;;;;;;9.02;3.10;;;11.80;86.50;;;;;;4954354;28;20049;-72
2022/02/20 12:32:10;;;;;;;6.13;3.72;;;11.60;83.00;;;;;;4971102;28;20062;-72
2022/02/20 12:34:52;;;;;;;5.47;2.53;;;11.60;83.20;;;;;;4970404;28;20031;-75
2022/02/20 12:37:21;;;;;;;6.18;2.60;;;11.70;83.30;;;;;;4951554;28;20031;-72
2022/02/20 12:40:03;;;;;;;7.00;3.10;;;11.90;86.00;;;;;;4955435;28;20058;-72
2022/02/20 12:42:31;;;;;;;6.57;3.47;;;11.80;84.50;;;;;;4970835;28;20105;-72
2022/02/20 12:45:08;;;;;;;7.60;3.13;;;11.70;83.60;;;;;;4971170;28;20035;-72